This is the latest recevied weather packets stored in our database for station/object HS3UAA-1. If no packets are shown the sender has not sent any weather packets the latest 10 day(s).
| Time | Temp. | Humidity | Pressure | Rain* | Wind** | Luminosity | Snow |
|---|---|---|---|---|---|---|---|
| 1787429015 | 32.78° C | 50% | 996 hPa | - | - | 0 W/m² | - |
| 1787428693 | 33.89° C | 47% | 996 hPa | - | - | 0 W/m² | - |
| 1787428371 | 32.22° C | 50% | 995 hPa | - | - | 0 W/m² | - |
| 1787428049 | 32.22° C | 50% | 995 hPa | - | - | 0 W/m² | - |
| 1787427727 | 33.33° C | 48% | 995 hPa | - | - | 0 W/m² | - |
| 1787427405 | 32.78° C | 49% | 995 hPa | - | - | 0 W/m² | - |
| 1787427083 | 32.78° C | 49% | 995 hPa | - | - | 0 W/m² | - |
| 1787426760 | 32.78° C | 49% | 995 hPa | - | - | 0 W/m² | - |
| 1787426438 | 32.22° C | 50% | 995 hPa | - | - | 0 W/m² | - |
| 1787426116 | 32.78° C | 50% | 995 hPa | - | - | 0 W/m² | - |
| 1787425794 | 32.78° C | 49% | 995 hPa | - | - | 0 W/m² | - |
| 1787425472 | 32.22° C | 50% | 995 hPa | - | - | 0 W/m² | - |
| 1787425150 | 32.78° C | 49% | 995 hPa | - | - | 0 W/m² | - |
| 1787424828 | 32.78° C | 49% | 995 hPa | - | - | 0 W/m² | - |
| 1787424506 | 32.78° C | 48% | 995 hPa | - | - | 0 W/m² | - |
| 1787424184 | 33.89° C | 47% | 995 hPa | - | - | 0 W/m² | - |
| 1787423862 | 32.78° C | 48% | 996 hPa | - | - | 0 W/m² | - |
| 1787423414 | 32.78° C | 48% | 996 hPa | - | - | 0 W/m² | - |
| 1787423092 | 32.78° C | 49% | 996 hPa | - | - | 0 W/m² | - |
| 1787422463 | 33.89° C | 46% | 996 hPa | - | - | 0 W/m² | - |
| 1787422141 | 33.33° C | 47% | 996 hPa | - | - | 0 W/m² | - |
| 1787421819 | 33.89° C | 46% | 996 hPa | - | - | 0 W/m² | - |
| 1787421497 | 33.89° C | 46% | 996 hPa | - | - | 0 W/m² | - |
| 1787421175 | 34.44° C | 45% | 996 hPa | - | - | 0 W/m² | - |
| 1787420852 | 33.33° C | 47% | 996 hPa | - | - | 0 W/m² | - |
* Rain since midnight (hover to see other rain measurements)
** Current wind speed in m/s (hover to see current wind gust speed)